Weather History for Fairmont, MN

Change the Weather History Date:

Monday, October 8, 2012

  Actual Average Record
Temperature  
Mean Temperature 53 °F -  
Max Temperature 69 °F 60 °F 89 °F (2010)
Min Temperature 37 °F 40 °F 21 °F (2000)
Degree Days  
Heating Degree Days 12    
Growing Degree Days 3 (Base 50)    
Moisture  
Dew Point 30 °F    
Average Humidity 45    
Maximum Humidity 82    
Minimum Humidity 20    
Precipitation  
Precipitation 0.01 in - - ()
Sea Level Pressure  
Sea Level Pressure 29.77 in    
Wind  
Wind Speed 13 mph (SW)    
Max Wind Speed 26 mph    
Max Gust Speed 34 mph    
Visibility 10 miles    
Events      
Averages and records for this station are not official NWS values.
T = Trace of Precipitation, MM = Missing Value Source: NWS Daily Summary

Daily Weather History Graph

Daily Weather History Graph

Search for Another Location

Airport:

Trip Planner

Search our weather history database for the weather conditions in past years. The results will help you decide how hot, cold, wet, or windy it might be!

Date:

Astronomy

Oct. 08, 2012 Rise Set
Actual Time 7:24 AM CDT 6:45 PM CDT
Civil Twilight 6:55 AM CDT 7:13 PM CDT
Nautical Twilight 6:22 AM CDT 7:47 PM CDT
Astronomical Twilight 5:48 AM CDT 8:20 PM CDT
Moon No Moon Rise 2:46 PM CDT (10/8)
Length of Visible Light 12h 18m
Length of Day
11h 21m
Last Quarter, 46% of the Moon is Illuminated
Oct 8
Last Quarter
Oct 15
New
Oct 21
First Quarter
Oct 29
Full
Nov 6
Last Quarter

Hourly Weather History & Observations

Time (CDT) Temp. Windchill Dew Point Humidity Pressure Visibility Wind Dir Wind Speed Gust Speed Precip Events Conditions
12:15 AM 41.0 °F 34.3 °F 21.2 °F 45% 29.89 in 10.0 mi SSW 11.5 mph - N/A   Clear
12:35 AM 41.0 °F 33.9 °F 21.2 °F 45% 29.89 in 10.0 mi SSW 12.7 mph - N/A   Clear
12:55 AM 39.2 °F 32.0 °F 21.2 °F 49% 29.88 in 10.0 mi SSW 11.5 mph - N/A   Clear
1:15 AM 39.2 °F 32.5 °F 21.2 °F 49% 29.88 in 10.0 mi SSW 10.4 mph - N/A   Clear
1:35 AM 39.2 °F 32.0 °F 21.2 °F 49% 29.88 in 10.0 mi SSW 11.5 mph - N/A   Clear
1:55 AM 39.2 °F 32.5 °F 21.2 °F 49% 29.87 in 10.0 mi SSW 10.4 mph - N/A   Clear
2:15 AM 37.4 °F 30.8 °F 21.2 °F 52% 29.87 in 10.0 mi SSW 9.2 mph - N/A   Clear
2:35 AM 37.4 °F 30.3 °F 23.0 °F 56% 29.87 in 10.0 mi SSW 10.4 mph - N/A   Clear
2:55 AM 37.4 °F 29.8 °F 23.0 °F 56% 29.86 in 10.0 mi SSW 11.5 mph - N/A   Clear
3:15 AM 37.4 °F 29.8 °F 23.0 °F 56% 29.85 in 10.0 mi SSW 11.5 mph - N/A   Clear
3:35 AM 37.4 °F 29.8 °F 24.8 °F 60% 29.85 in 10.0 mi SSW 11.5 mph - N/A   Clear
3:55 AM 39.2 °F 32.5 °F 24.8 °F 56% 29.84 in 10.0 mi SSW 10.4 mph - N/A   Clear
4:15 AM 39.2 °F 33.0 °F 24.8 °F 56% 29.84 in 10.0 mi SSW 9.2 mph - N/A   Clear
4:35 AM 39.2 °F 32.5 °F 24.8 °F 56% 29.84 in 10.0 mi SSW 10.4 mph - N/A   Clear
4:55 AM 39.2 °F 32.5 °F 26.6 °F 61% 29.83 in 10.0 mi SSW 10.4 mph - N/A   Clear
5:15 AM 41.0 °F 34.7 °F 26.6 °F 57% 29.83 in 10.0 mi SSW 10.4 mph - N/A   Mostly Cloudy
5:35 AM 42.8 °F 37.0 °F 26.6 °F 53% 29.82 in 10.0 mi SSW 10.4 mph - N/A   Scattered Clouds
5:55 AM 42.8 °F 37.0 °F 26.6 °F 53% 29.82 in 10.0 mi SSW 10.4 mph - N/A   Mostly Cloudy
6:15 AM 42.8 °F 37.0 °F 28.4 °F 57% 29.82 in 10.0 mi SSW 10.4 mph - N/A   Mostly Cloudy
6:35 AM 42.8 °F 36.6 °F 28.4 °F 57% 29.82 in 10.0 mi SSW 11.5 mph - N/A   Mostly Cloudy
6:55 AM 44.6 °F 39.2 °F 28.4 °F 53% 29.82 in 10.0 mi SW 10.4 mph - N/A   Overcast
7:15 AM 44.6 °F 38.4 °F 28.4 °F 53% 29.81 in 10.0 mi SSW 12.7 mph - N/A   Overcast
7:35 AM 42.8 °F 36.2 °F 28.4 °F 57% 29.80 in 10.0 mi South 12.7 mph - N/A   Mostly Cloudy
7:55 AM 42.8 °F 36.6 °F 28.4 °F 57% 29.80 in 10.0 mi South 11.5 mph - N/A   Mostly Cloudy
8:15 AM 44.6 °F 38.4 °F 28.4 °F 53% 29.80 in 10.0 mi South 12.7 mph - N/A   Mostly Cloudy
8:35 AM 44.6 °F 38.8 °F 28.4 °F 53% 29.80 in 10.0 mi South 11.5 mph - N/A   Mostly Cloudy
8:55 AM 44.6 °F 38.8 °F 30.2 °F 57% 29.80 in 10.0 mi SSW 11.5 mph - N/A   Overcast
9:15 AM 46.4 °F 41.1 °F 30.2 °F 53% 29.80 in 10.0 mi SSW 11.5 mph - N/A   Mostly Cloudy
9:35 AM 46.4 °F 40.4 °F 30.2 °F 53% 29.79 in 10.0 mi SSW 13.8 mph - N/A   Overcast
9:55 AM 48.2 °F - 30.2 °F 50% 29.79 in 10.0 mi SSW 12.7 mph - N/A   Overcast
10:15 AM 50.0 °F - 30.2 °F 47% 29.78 in 10.0 mi SSW 15.0 mph 20.7 mph N/A   Mostly Cloudy
10:35 AM 51.8 °F - 30.2 °F 44% 29.77 in 10.0 mi South 16.1 mph - N/A   Scattered Clouds
10:55 AM 53.6 °F - 32.0 °F 44% 29.76 in 10.0 mi South 19.6 mph - N/A   Scattered Clouds
11:15 AM 53.6 °F - 30.2 °F 41% 29.76 in 10.0 mi SSW 17.3 mph 20.7 mph N/A   Partly Cloudy
11:35 AM 57.2 °F - 30.2 °F 36% 29.74 in 10.0 mi South 20.7 mph 28.8 mph N/A   Partly Cloudy
11:55 AM 59.0 °F - 30.2 °F 34% 29.73 in 10.0 mi SSW 20.7 mph 26.5 mph N/A   Partly Cloudy
12:15 PM 62.6 °F - 30.2 °F 30% 29.73 in 10.0 mi SSW 18.4 mph 26.5 mph N/A   Scattered Clouds
12:35 PM 62.6 °F - 30.2 °F 30% 29.72 in 10.0 mi South 23.0 mph 27.6 mph N/A   Partly Cloudy
12:55 PM 62.6 °F - 28.4 °F 27% 29.71 in 10.0 mi SSW 18.4 mph 32.2 mph N/A   Scattered Clouds
1:15 PM 62.6 °F - 28.4 °F 27% 29.70 in 10.0 mi SSW 20.7 mph 26.5 mph N/A   Mostly Cloudy
1:35 PM 64.4 °F - 28.4 °F 26% 29.69 in 10.0 mi SSW 24.2 mph 29.9 mph N/A   Overcast
1:55 PM 62.6 °F - 28.4 °F 27% 29.68 in 10.0 mi SSW 19.6 mph 27.6 mph N/A   Overcast
2:15 PM 64.4 °F - 28.4 °F 26% 29.68 in 10.0 mi SW 24.2 mph 29.9 mph N/A   Overcast
2:35 PM 66.2 °F - 28.4 °F 24% 29.66 in 10.0 mi SSW 26.5 mph 33.4 mph N/A   Scattered Clouds
2:55 PM 68.0 °F - 26.6 °F 21% 29.66 in 10.0 mi SSW 24.2 mph 33.4 mph N/A   Clear
3:15 PM 68.0 °F - 26.6 °F 21% 29.66 in 10.0 mi SW 23.0 mph 31.1 mph N/A   Scattered Clouds
3:35 PM 68.0 °F - 26.6 °F 21% 29.65 in 10.0 mi SW 24.2 mph 31.1 mph N/A   Mostly Cloudy
3:55 PM 68.0 °F - 26.6 °F 21% 29.65 in 10.0 mi SW 20.7 mph 34.5 mph N/A   Partly Cloudy
4:15 PM 69.8 °F - 26.6 °F 20% 29.65 in 10.0 mi SW 26.5 mph 32.2 mph N/A   Clear
4:35 PM 69.8 °F - 26.6 °F 20% 29.65 in 10.0 mi SW 26.5 mph 29.9 mph N/A   Clear
4:55 PM 69.8 °F - 26.6 °F 20% 29.65 in 10.0 mi SW 20.7 mph 26.5 mph N/A   Clear
5:15 PM 69.8 °F - 26.6 °F 20% 29.66 in 10.0 mi WSW 15.0 mph 24.2 mph N/A   Scattered Clouds
5:35 PM 68.0 °F - 30.2 °F 24% 29.66 in 10.0 mi West 18.4 mph 24.2 mph N/A   Overcast
5:55 PM 68.0 °F - 30.2 °F 24% 29.67 in 10.0 mi West 12.7 mph 18.4 mph N/A   Overcast
6:15 PM 66.2 °F - 30.2 °F 26% 29.67 in 10.0 mi West 12.7 mph - N/A   Mostly Cloudy
6:35 PM 66.2 °F - 32.0 °F 28% 29.68 in 10.0 mi West 15.0 mph - N/A   Overcast
6:55 PM 64.4 °F - 35.6 °F 34% 29.69 in 10.0 mi WNW 13.8 mph 18.4 mph N/A   Overcast
7:15 PM 64.4 °F - 37.4 °F 37% 29.70 in 10.0 mi WNW 13.8 mph - N/A   Overcast
7:35 PM 62.6 °F - 37.4 °F 39% 29.71 in 10.0 mi WNW 10.4 mph - N/A   Overcast
8:35 PM 62.6 °F - 37.4 °F 39% 29.74 in 10.0 mi WNW 12.7 mph - N/A   Overcast
8:55 PM 60.8 °F - 39.2 °F 45% 29.76 in 10.0 mi WNW 11.5 mph - N/A   Overcast
9:15 PM 57.2 °F - 42.8 °F 59% 29.77 in 10.0 mi WNW 16.1 mph - N/A   Overcast
9:35 PM 55.4 °F - 44.6 °F 67% 29.78 in 10.0 mi NW 12.7 mph - N/A   Overcast
9:55 PM 53.6 °F - 44.6 °F 72% 29.79 in 10.0 mi WNW 8.1 mph - N/A   Overcast
10:15 PM 53.6 °F - 44.6 °F 72% 29.79 in 10.0 mi Calm Calm - 0.01 in   Overcast
10:55 PM 51.8 °F - 46.4 °F 82% 29.79 in 10.0 mi Calm Calm - 0.01 in   Overcast
11:15 PM 51.8 °F - 46.4 °F 82% 29.80 in 10.0 mi SSW 9.2 mph - N/A   Overcast
11:35 PM 51.8 °F - 46.4 °F 82% 29.79 in 10.0 mi South 8.1 mph - N/A   Overcast
11:55 PM 50.0 °F - 44.6 °F 82% 29.79 in 10.0 mi South 6.9 mph - N/A   Mostly Cloudy